createdAt,value
2023-03-04T00:00:33.820Z,1.80
2023-03-04T00:03:01.008Z,1.80
2023-03-04T00:05:28.172Z,1.80
2023-03-04T00:07:55.281Z,1.80
2023-03-04T00:10:22.456Z,1.70
2023-03-04T00:12:49.623Z,1.70
2023-03-04T00:15:16.847Z,1.60
2023-03-04T00:17:46.156Z,1.60
2023-03-04T00:20:13.661Z,1.50
2023-03-04T00:22:42.383Z,1.50
2023-03-04T00:25:09.716Z,1.50
2023-03-04T00:27:36.816Z,1.40
2023-03-04T00:30:05.626Z,1.40
2023-03-04T00:32:32.959Z,1.40
2023-03-04T00:35:00.347Z,1.40
2023-03-04T00:37:27.472Z,1.40
2023-03-04T00:39:54.586Z,1.40
2023-03-04T00:42:21.691Z,1.40
2023-03-04T00:44:49.766Z,1.40
2023-03-04T00:47:16.842Z,1.40
2023-03-04T00:49:44.037Z,1.30
2023-03-04T00:52:11.133Z,1.30
2023-03-04T00:54:38.239Z,1.30
2023-03-04T00:57:05.346Z,1.30
2023-03-04T00:59:32.677Z,1.30
2023-03-04T01:01:59.796Z,1.40
2023-03-04T01:04:27.010Z,1.40
2023-03-04T01:06:54.308Z,1.40
2023-03-04T01:09:21.379Z,1.40
2023-03-04T01:11:48.511Z,1.40
2023-03-04T01:14:15.588Z,1.30
2023-03-04T01:16:42.838Z,1.30
2023-03-04T01:19:10.042Z,1.30
2023-03-04T01:21:37.345Z,1.20
2023-03-04T01:24:04.846Z,1.30
2023-03-04T01:26:32.037Z,1.30
2023-03-04T01:28:59.272Z,1.20
2023-03-04T01:31:26.587Z,1.20
2023-03-04T01:33:53.744Z,1.20
2023-03-04T01:36:20.859Z,1.20
2023-03-04T01:38:48.066Z,1.20
2023-03-04T01:41:18.896Z,1.10
2023-03-04T01:43:46.048Z,1.10
2023-03-04T01:46:17.592Z,1.10
2023-03-04T01:48:45.043Z,1.10
2023-03-04T01:51:16.087Z,1.00
2023-03-04T01:53:45.296Z,1.00
2023-03-04T01:56:22.562Z,1.00
2023-03-04T01:59:09.566Z,1.00
2023-03-04T02:01:38.248Z,1.00
2023-03-04T02:04:06.386Z,1.00
2023-03-04T02:06:34.942Z,1.00
2023-03-04T02:09:02.186Z,1.00
2023-03-04T02:11:29.430Z,0.90
2023-03-04T02:13:56.925Z,0.90
2023-03-04T02:16:24.143Z,0.90
2023-03-04T02:18:51.677Z,0.90
2023-03-04T02:21:29.397Z,0.90
2023-03-04T02:24:23.264Z,0.90
2023-03-04T02:26:50.467Z,1.00
2023-03-04T02:29:18.198Z,1.00
2023-03-04T02:31:48.598Z,1.00
2023-03-04T02:34:19.174Z,1.00
2023-03-04T02:36:47.968Z,1.00
2023-03-04T02:39:20.802Z,1.00
2023-03-04T02:41:49.975Z,1.10
2023-03-04T02:44:23.144Z,1.10
2023-03-04T02:46:51.124Z,1.10
2023-03-04T02:49:19.294Z,1.10
2023-03-04T02:51:46.622Z,1.10
2023-03-04T02:54:20.740Z,1.10
2023-03-04T02:56:56.081Z,1.10
2023-03-04T02:59:23.787Z,1.10
2023-03-04T03:01:51.835Z,1.10
2023-03-04T03:04:20.451Z,1.10
2023-03-04T03:06:47.578Z,1.10
2023-03-04T03:09:14.839Z,1.10
2023-03-04T03:11:41.989Z,1.10
2023-03-04T03:14:09.868Z,1.10
2023-03-04T03:16:37.046Z,1.00
2023-03-04T03:19:04.226Z,1.00
2023-03-04T03:21:31.451Z,1.10
2023-03-04T03:23:58.549Z,1.10
2023-03-04T03:26:25.762Z,1.10
2023-03-04T03:28:52.961Z,1.10
2023-03-04T03:31:20.220Z,1.10
2023-03-04T03:33:47.371Z,1.10
2023-03-04T03:36:14.512Z,1.10
2023-03-04T03:38:42.460Z,1.10
2023-03-04T03:41:09.625Z,1.10
2023-03-04T03:43:36.724Z,1.10
2023-03-04T03:46:04.060Z,1.00
2023-03-04T03:48:31.185Z,1.10
2023-03-04T03:50:58.276Z,1.10
2023-03-04T03:53:25.513Z,1.10
2023-03-04T03:55:52.589Z,1.10
2023-03-04T03:58:19.835Z,1.20
2023-03-04T04:00:46.919Z,1.20
2023-03-04T04:03:17.633Z,1.30
2023-03-04T04:05:44.879Z,1.30
2023-03-04T04:08:17.112Z,1.30
2023-03-04T04:10:44.891Z,1.40
2023-03-04T04:13:12.213Z,1.40
2023-03-04T04:15:39.640Z,1.50
2023-03-04T04:18:07.560Z,1.50
2023-03-04T04:20:35.586Z,1.50
2023-03-04T04:23:03.548Z,1.50
2023-03-04T04:25:30.760Z,1.60
2023-03-04T04:27:57.881Z,1.60
2023-03-04T04:30:25.344Z,1.60
2023-03-04T04:32:52.763Z,1.60
2023-03-04T04:35:19.880Z,1.70
2023-03-04T04:37:46.989Z,1.70
2023-03-04T04:40:14.310Z,1.70
2023-03-04T04:42:41.496Z,1.70
2023-03-04T04:45:09.304Z,1.70
2023-03-04T04:47:36.490Z,1.80
2023-03-04T04:50:03.962Z,1.70
2023-03-04T04:52:31.132Z,1.80
2023-03-04T04:54:58.388Z,1.80
2023-03-04T04:57:25.522Z,1.80
2023-03-04T04:59:52.660Z,1.80
2023-03-04T05:02:19.971Z,1.70
2023-03-04T05:04:47.218Z,1.70
2023-03-04T05:07:14.336Z,1.70
2023-03-04T05:09:41.551Z,1.70
2023-03-04T05:12:08.730Z,1.70
2023-03-04T05:14:35.780Z,1.70
2023-03-04T05:17:02.936Z,1.70
2023-03-04T05:19:30.102Z,1.70
2023-03-04T05:21:57.188Z,1.70
2023-03-04T05:24:24.446Z,1.70
2023-03-04T05:26:51.613Z,1.70
2023-03-04T05:29:18.751Z,1.70
2023-03-04T05:31:45.846Z,1.70
2023-03-04T05:34:13.094Z,1.70
2023-03-04T05:36:40.176Z,1.80
2023-03-04T05:39:07.570Z,1.80
2023-03-04T05:41:34.702Z,1.80
2023-03-04T05:44:01.925Z,1.90
2023-03-04T05:46:30.248Z,1.90
2023-03-04T05:48:58.871Z,2.00
2023-03-04T05:51:25.990Z,2.00
2023-03-04T05:53:53.072Z,2.10
2023-03-04T05:56:21.263Z,2.20
2023-03-04T05:58:48.613Z,2.20
2023-03-04T06:01:16.266Z,2.30
2023-03-04T06:03:43.742Z,2.40
2023-03-04T06:06:11.308Z,2.50
2023-03-04T06:08:38.522Z,2.60
2023-03-04T06:11:05.919Z,2.70
2023-03-04T06:13:34.372Z,2.70
2023-03-04T06:16:01.937Z,2.80
2023-03-04T06:18:29.588Z,2.90
2023-03-04T06:21:03.437Z,3.00
2023-03-04T06:23:31.169Z,3.10
2023-03-04T06:26:00.169Z,3.20
2023-03-04T06:28:28.426Z,3.20
2023-03-04T06:30:57.988Z,3.30
2023-03-04T06:33:25.709Z,3.40
2023-03-04T06:35:57.376Z,3.50
2023-03-04T06:38:25.281Z,3.60
2023-03-04T06:40:54.309Z,3.70
2023-03-04T06:43:23.315Z,3.80
2023-03-04T06:45:50.483Z,4.00
2023-03-04T06:48:17.643Z,4.10
2023-03-04T06:50:44.724Z,4.20
2023-03-04T06:53:11.857Z,4.40
2023-03-04T06:55:38.932Z,4.50
2023-03-04T06:58:06.117Z,4.60
2023-03-04T07:00:33.250Z,4.60
2023-03-04T07:03:00.697Z,4.70
2023-03-04T07:05:27.864Z,4.90
2023-03-04T07:07:55.282Z,4.90
2023-03-04T07:10:22.384Z,5.00
2023-03-04T07:12:49.571Z,5.10
2023-03-04T07:15:16.738Z,5.10
2023-03-04T07:17:43.851Z,5.20
2023-03-04T07:20:11.768Z,5.30
2023-03-04T07:22:39.776Z,5.30
2023-03-04T07:25:07.296Z,5.40
2023-03-04T07:27:34.563Z,5.40
2023-03-04T07:30:02.494Z,5.50
2023-03-04T07:32:29.849Z,5.50
2023-03-04T07:34:57.106Z,5.50
2023-03-04T07:37:24.751Z,5.60
2023-03-04T07:39:51.869Z,5.60
2023-03-04T07:42:18.927Z,5.60
2023-03-04T07:44:46.142Z,5.60
2023-03-04T07:47:13.346Z,5.70
2023-03-04T07:49:40.450Z,5.70
2023-03-04T07:52:07.739Z,5.80
2023-03-04T07:54:34.959Z,5.80
2023-03-04T07:57:02.053Z,5.90
2023-03-04T07:59:29.166Z,6.00
2023-03-04T08:01:56.297Z,6.00
2023-03-04T08:04:23.477Z,6.10
2023-03-04T08:06:50.944Z,6.10
2023-03-04T08:09:18.094Z,6.20
2023-03-04T08:11:45.515Z,6.30
2023-03-04T08:14:13.948Z,6.40
2023-03-04T08:16:41.706Z,6.40
2023-03-04T08:19:10.484Z,6.40
2023-03-04T08:21:37.751Z,6.50
2023-03-04T08:24:10.768Z,6.50
2023-03-04T08:26:42.144Z,6.60
2023-03-04T08:29:12.054Z,6.60
2023-03-04T08:31:39.599Z,6.70
2023-03-04T08:34:08.515Z,6.80
2023-03-04T08:36:35.753Z,6.90
2023-03-04T08:39:04.819Z,7.00
2023-03-04T08:41:31.963Z,7.00
2023-03-04T08:44:00.398Z,7.10
2023-03-04T08:46:27.987Z,7.20
2023-03-04T08:48:55.210Z,7.30
2023-03-04T08:51:22.806Z,7.50
2023-03-04T08:53:49.926Z,7.50
2023-03-04T08:56:17.524Z,7.60
2023-03-04T08:58:44.718Z,7.70
2023-03-04T09:01:13.499Z,7.70
2023-03-04T09:03:41.050Z,7.60
2023-03-04T09:06:12.088Z,7.70
2023-03-04T09:08:39.221Z,7.80
2023-03-04T09:11:06.739Z,7.70
2023-03-04T09:13:34.543Z,7.90
2023-03-04T09:16:02.190Z,7.90
2023-03-04T09:18:29.447Z,8.00
2023-03-04T09:20:57.111Z,8.00
2023-03-04T09:23:24.335Z,8.10
2023-03-04T09:25:51.475Z,8.10
2023-03-04T09:28:19.180Z,8.20
2023-03-04T09:30:48.406Z,8.30
2023-03-04T09:33:16.065Z,8.30
2023-03-04T09:35:43.678Z,8.30
2023-03-04T09:38:10.800Z,8.40
2023-03-04T09:40:45.593Z,8.50
2023-03-04T09:43:29.614Z,8.70
2023-03-04T09:46:03.957Z,8.80
2023-03-04T09:48:40.201Z,8.70
2023-03-04T09:51:21.574Z,8.70
2023-03-04T09:54:08.983Z,8.70
2023-03-04T09:56:39.635Z,8.80
2023-03-04T09:59:15.580Z,8.90
2023-03-04T10:01:50.141Z,8.90
2023-03-04T10:04:40.163Z,8.90
2023-03-04T10:07:19.504Z,9.00
2023-03-04T10:09:52.767Z,8.90
2023-03-04T10:12:23.684Z,8.90
2023-03-04T10:14:58.555Z,9.00
2023-03-04T10:17:32.104Z,9.10
2023-03-04T10:20:05.473Z,9.20
2023-03-04T10:23:00.189Z,9.20
2023-03-04T10:25:32.917Z,9.30
2023-03-04T10:28:17.483Z,9.30
2023-03-04T10:30:58.117Z,9.40
2023-03-04T10:33:31.668Z,9.40
2023-03-04T10:36:06.312Z,9.30
2023-03-04T10:38:36.471Z,9.40
2023-03-04T10:41:14.021Z,9.50
2023-03-04T10:43:42.673Z,9.60
2023-03-04T10:46:11.773Z,9.80
2023-03-04T10:48:42.382Z,9.90
2023-03-04T10:51:21.739Z,10.00
2023-03-04T10:53:57.011Z,10.10
2023-03-04T10:56:33.203Z,10.10
2023-03-04T10:59:39.186Z,10.20
2023-03-04T11:02:24.650Z,10.30
2023-03-04T11:04:57.941Z,10.40
2023-03-04T11:07:26.885Z,10.50
2023-03-04T11:09:57.243Z,10.50
2023-03-04T11:12:34.086Z,10.60
2023-03-04T11:15:02.108Z,10.60
2023-03-04T11:17:41.983Z,10.70
2023-03-04T11:20:27.424Z,10.80
2023-03-04T11:22:56.991Z,10.90
2023-03-04T11:25:28.867Z,10.90
2023-03-04T11:28:14.014Z,11.00
2023-03-04T11:31:09.102Z,11.10
2023-03-04T11:34:02.545Z,11.20
2023-03-04T11:36:30.335Z,11.30
2023-03-04T11:38:58.387Z,11.30
2023-03-04T11:41:32.418Z,11.40
2023-03-04T11:44:00.659Z,11.50
2023-03-04T11:46:45.693Z,11.50
2023-03-04T11:49:30.780Z,11.60
2023-03-04T11:52:31.948Z,11.60
2023-03-04T11:55:08.025Z,11.60
2023-03-04T11:57:49.564Z,11.70
2023-03-04T12:00:24.345Z,11.70
2023-03-04T12:03:00.275Z,11.70
2023-03-04T12:05:56.792Z,11.70
2023-03-04T12:08:37.871Z,11.70
2023-03-04T12:11:27.877Z,11.70
2023-03-04T12:14:20.279Z,11.80
2023-03-04T12:16:54.661Z,11.90
2023-03-04T12:19:58.810Z,12.00
2023-03-04T12:22:45.006Z,11.90
2023-03-04T12:25:34.765Z,11.90
2023-03-04T12:28:18.330Z,11.90
2023-03-04T12:30:57.677Z,12.00
2023-03-04T12:33:46.749Z,12.00
2023-03-04T12:36:35.412Z,12.00
2023-03-04T12:39:18.668Z,11.90
2023-03-04T12:41:57.659Z,12.00
2023-03-04T12:44:24.946Z,12.00
2023-03-04T12:47:19.498Z,11.90
2023-03-04T12:49:52.490Z,11.90
2023-03-04T12:52:33.982Z,11.90
2023-03-04T12:55:10.599Z,11.90
2023-03-04T12:57:38.415Z,12.00
2023-03-04T13:00:20.670Z,12.00
2023-03-04T13:03:03.491Z,12.10
2023-03-04T13:05:42.711Z,12.20
2023-03-04T13:08:09.737Z,12.20
2023-03-04T13:10:37.085Z,12.20
2023-03-04T13:13:04.364Z,12.30
2023-03-04T13:15:38.887Z,12.30
2023-03-04T13:18:27.571Z,12.30
2023-03-04T13:21:13.604Z,12.30
2023-03-04T13:23:41.028Z,12.40
2023-03-04T13:26:21.655Z,12.40
2023-03-04T13:29:10.387Z,12.30
2023-03-04T13:32:02.418Z,12.20
2023-03-04T13:34:54.560Z,12.10
2023-03-04T13:37:37.107Z,12.00
2023-03-04T13:40:27.641Z,12.10
2023-03-04T13:42:54.809Z,12.00
2023-03-04T13:45:39.105Z,12.00
2023-03-04T13:48:30.416Z,12.00
2023-03-04T13:50:57.855Z,12.00
2023-03-04T13:53:39.153Z,11.80
2023-03-04T13:56:14.442Z,11.70
2023-03-04T13:58:41.964Z,11.60
2023-03-04T14:01:28.687Z,11.50
2023-03-04T14:03:56.085Z,11.40
2023-03-04T14:06:25.977Z,11.30
2023-03-04T14:08:54.196Z,11.20
2023-03-04T14:11:26.756Z,11.10
2023-03-04T14:13:56.801Z,11.10
2023-03-04T14:16:27.246Z,11.10
2023-03-04T14:19:03.575Z,11.10
2023-03-04T14:21:31.581Z,11.00
2023-03-04T14:24:19.923Z,10.80
2023-03-04T14:26:47.512Z,10.70
2023-03-04T14:29:26.511Z,10.40
2023-03-04T14:31:54.694Z,10.30
2023-03-04T14:34:28.596Z,10.20
2023-03-04T14:36:55.951Z,10.10
2023-03-04T14:39:26.625Z,9.90
2023-03-04T14:41:56.013Z,9.80
2023-03-04T14:44:41.256Z,9.70
2023-03-04T14:47:14.972Z,9.70
2023-03-04T14:49:42.193Z,9.60
2023-03-04T14:52:32.066Z,9.50
2023-03-04T14:55:14.864Z,9.50
2023-03-04T14:57:43.977Z,9.40
2023-03-04T15:00:20.024Z,9.30
2023-03-04T15:02:52.748Z,9.40
2023-03-04T15:05:26.382Z,9.30
2023-03-04T15:08:02.693Z,9.20
2023-03-04T15:10:39.015Z,9.20
2023-03-04T15:13:08.579Z,9.20
2023-03-04T15:15:46.848Z,9.10
2023-03-04T15:18:26.536Z,9.00
2023-03-04T15:20:58.991Z,8.90
2023-03-04T15:23:28.096Z,8.80
2023-03-04T15:25:57.826Z,8.60
2023-03-04T15:28:26.794Z,8.60
2023-03-04T15:30:54.488Z,8.50
2023-03-04T15:33:21.813Z,8.50
2023-03-04T15:35:54.984Z,8.40
2023-03-04T15:38:22.910Z,8.30
2023-03-04T15:40:54.232Z,8.30
2023-03-04T15:43:23.434Z,8.20
2023-03-04T15:45:51.756Z,8.00
2023-03-04T15:48:19.242Z,8.00
2023-03-04T15:51:03.404Z,7.90
2023-03-04T15:53:43.235Z,7.80
2023-03-04T15:56:17.360Z,7.70
2023-03-04T15:58:48.094Z,7.70
2023-03-04T16:01:17.016Z,7.70
2023-03-04T16:03:44.219Z,7.60
2023-03-04T16:06:14.678Z,7.60
2023-03-04T16:08:42.624Z,7.50
2023-03-04T16:11:21.823Z,7.50
2023-03-04T16:13:49.459Z,7.40
2023-03-04T16:16:17.234Z,7.40
2023-03-04T16:18:45.194Z,7.30
2023-03-04T16:21:16.904Z,7.20
2023-03-04T16:23:47.569Z,7.10
2023-03-04T16:26:20.794Z,7.00
2023-03-04T16:28:48.316Z,6.90
2023-03-04T16:31:16.091Z,6.90
2023-03-04T16:33:44.654Z,6.80
2023-03-04T16:36:26.649Z,6.70
2023-03-04T16:38:56.044Z,6.60
2023-03-04T16:41:26.657Z,6.60
2023-03-04T16:43:55.984Z,6.60
2023-03-04T16:46:24.214Z,6.50
2023-03-04T16:48:51.404Z,6.50
2023-03-04T16:51:21.287Z,6.40
2023-03-04T16:53:51.579Z,6.40
2023-03-04T16:56:19.772Z,6.30
2023-03-04T16:58:47.629Z,6.30
2023-03-04T17:01:26.857Z,6.30
2023-03-04T17:03:55.148Z,6.30
2023-03-04T17:06:23.257Z,6.20
2023-03-04T17:08:50.973Z,6.10
2023-03-04T17:11:23.254Z,6.00
2023-03-04T17:13:51.447Z,6.00
2023-03-04T17:16:19.392Z,6.00
2023-03-04T17:18:46.553Z,5.90
2023-03-04T17:21:16.764Z,5.90
2023-03-04T17:23:44.122Z,5.90
2023-03-04T17:26:13.609Z,5.80
2023-03-04T17:28:40.850Z,5.70
2023-03-04T17:31:12.091Z,5.60
2023-03-04T17:33:39.570Z,5.50
2023-03-04T17:36:08.464Z,5.50
2023-03-04T17:38:37.297Z,5.40
2023-03-04T17:41:05.978Z,5.30
2023-03-04T17:43:33.184Z,5.30
2023-03-04T17:46:20.357Z,5.20
2023-03-04T17:48:47.638Z,5.20
2023-03-04T17:51:15.338Z,5.20
2023-03-04T17:53:42.472Z,5.10
2023-03-04T17:56:12.114Z,5.10
2023-03-04T17:58:39.880Z,5.00
2023-03-04T18:01:20.686Z,5.00
2023-03-04T18:03:48.961Z,5.00
2023-03-04T18:06:17.190Z,5.00
2023-03-04T18:08:45.100Z,5.00
2023-03-04T18:11:12.346Z,5.00
2023-03-04T18:13:41.107Z,4.90
2023-03-04T18:16:13.761Z,4.90
2023-03-04T18:18:40.944Z,4.90
2023-03-04T18:21:08.406Z,4.90
2023-03-04T18:23:35.864Z,4.90
2023-03-04T18:26:04.452Z,4.80
2023-03-04T18:28:32.485Z,4.80
2023-03-04T18:31:01.132Z,4.90
2023-03-04T18:33:30.296Z,4.80
2023-03-04T18:36:02.633Z,4.80
2023-03-04T18:38:30.102Z,4.80
2023-03-04T18:41:03.622Z,4.80
2023-03-04T18:43:31.019Z,4.80
2023-03-04T18:46:02.146Z,4.80
2023-03-04T18:48:32.785Z,4.80
2023-03-04T18:51:00.201Z,4.70
2023-03-04T18:53:29.743Z,4.70
2023-03-04T18:56:03.078Z,4.70
2023-03-04T18:58:33.450Z,4.60
2023-03-04T19:01:04.957Z,4.60
2023-03-04T19:03:34.429Z,4.60
2023-03-04T19:06:01.696Z,4.60
2023-03-04T19:08:28.933Z,4.50
2023-03-04T19:10:57.076Z,4.50
2023-03-04T19:13:24.220Z,4.50
2023-03-04T19:15:53.318Z,4.40
2023-03-04T19:18:21.022Z,4.40
2023-03-04T19:20:48.143Z,4.30
2023-03-04T19:23:15.593Z,4.30
2023-03-04T19:25:43.803Z,4.30
2023-03-04T19:28:12.233Z,4.20
2023-03-04T19:30:41.462Z,4.20
2023-03-04T19:33:10.317Z,4.10
2023-03-04T19:35:42.510Z,4.10
2023-03-04T19:38:09.762Z,4.10
2023-03-04T19:40:47.083Z,4.20
2023-03-04T19:43:14.766Z,4.10
2023-03-04T19:45:42.186Z,4.10
2023-03-04T19:48:16.216Z,4.10
2023-03-04T19:50:43.345Z,4.00
2023-03-04T19:53:13.921Z,4.00
2023-03-04T19:55:41.162Z,3.90
2023-03-04T19:58:08.306Z,3.90
2023-03-04T20:00:35.972Z,3.90
2023-03-04T20:03:07.652Z,3.90
2023-03-04T20:05:35.593Z,3.80
2023-03-04T20:08:02.859Z,3.90
2023-03-04T20:10:37.272Z,3.80
2023-03-04T20:13:05.598Z,3.90
2023-03-04T20:15:35.183Z,3.80
2023-03-04T20:18:02.376Z,3.80
2023-03-04T20:20:29.589Z,3.80
2023-03-04T20:22:56.775Z,3.70
2023-03-04T20:25:25.235Z,3.70
2023-03-04T20:27:52.328Z,3.70
2023-03-04T20:30:19.459Z,3.70
2023-03-04T20:32:49.713Z,3.60
2023-03-04T20:35:20.060Z,3.60
2023-03-04T20:37:50.961Z,3.60
2023-03-04T20:40:20.717Z,3.70
2023-03-04T20:42:48.139Z,3.70
2023-03-04T20:45:17.580Z,3.70
2023-03-04T20:47:44.726Z,3.80
2023-03-04T20:50:11.944Z,3.80
2023-03-04T20:52:39.190Z,3.70
2023-03-04T20:55:06.789Z,3.70
2023-03-04T20:57:34.010Z,3.70
2023-03-04T21:00:03.570Z,3.70
2023-03-04T21:02:30.930Z,3.70
2023-03-04T21:05:01.470Z,3.70
2023-03-04T21:07:28.648Z,3.70
2023-03-04T21:09:55.850Z,3.70
2023-03-04T21:12:23.182Z,3.70
2023-03-04T21:14:50.672Z,3.70
2023-03-04T21:17:17.818Z,3.70
2023-03-04T21:19:45.144Z,3.70
2023-03-04T21:22:17.755Z,3.70
2023-03-04T21:24:46.079Z,3.70
2023-03-04T21:27:15.087Z,3.60
2023-03-04T21:29:42.211Z,3.60
2023-03-04T21:32:26.888Z,3.60
2023-03-04T21:34:55.322Z,3.60
2023-03-04T21:37:24.114Z,3.60
2023-03-04T21:39:51.332Z,3.60
2023-03-04T21:42:18.944Z,3.70
2023-03-04T21:44:50.896Z,3.80
2023-03-04T21:47:20.205Z,3.90
2023-03-04T21:49:47.667Z,3.90
2023-03-04T21:52:14.852Z,4.00
2023-03-04T21:54:42.079Z,4.00
2023-03-04T21:57:09.564Z,4.10
2023-03-04T21:59:38.004Z,4.20
2023-03-04T22:02:05.405Z,4.30
2023-03-04T22:04:32.803Z,4.30
2023-03-04T22:07:03.908Z,4.40
2023-03-04T22:09:30.995Z,4.40
2023-03-04T22:11:58.177Z,4.50
2023-03-04T22:14:27.697Z,4.50
2023-03-04T22:16:56.201Z,4.60
2023-03-04T22:19:25.168Z,4.60
2023-03-04T22:21:53.086Z,4.70
2023-03-04T22:24:20.948Z,4.70
2023-03-04T22:26:48.383Z,4.70
2023-03-04T22:29:15.681Z,4.70
2023-03-04T22:31:42.928Z,4.80
2023-03-04T22:34:12.901Z,4.80
2023-03-04T22:36:42.509Z,4.80
2023-03-04T22:39:12.376Z,4.80
2023-03-04T22:41:39.582Z,4.90
2023-03-04T22:44:07.692Z,4.90
2023-03-04T22:46:38.200Z,4.90
2023-03-04T22:49:11.136Z,4.90
2023-03-04T22:51:41.436Z,4.90
2023-03-04T22:54:11.055Z,4.90
2023-03-04T22:56:39.202Z,5.00
2023-03-04T22:59:06.454Z,5.00
2023-03-04T23:01:33.954Z,5.00
2023-03-04T23:04:01.125Z,5.00
2023-03-04T23:06:30.370Z,5.10
2023-03-04T23:08:59.006Z,5.10
2023-03-04T23:11:29.201Z,5.10
2023-03-04T23:13:56.863Z,5.10
2023-03-04T23:16:25.332Z,5.10
2023-03-04T23:18:53.365Z,5.20
2023-03-04T23:21:23.520Z,5.20
2023-03-04T23:23:51.948Z,5.30
2023-03-04T23:26:20.477Z,5.30
2023-03-04T23:28:47.808Z,5.30
2023-03-04T23:31:15.333Z,5.40
2023-03-04T23:33:43.821Z,5.40
2023-03-04T23:36:15.299Z,5.40
2023-03-04T23:38:43.917Z,5.40
2023-03-04T23:41:13.304Z,5.40
2023-03-04T23:43:40.742Z,5.40
2023-03-04T23:46:14.005Z,5.30
2023-03-04T23:48:43.782Z,5.30
2023-03-04T23:51:10.977Z,5.30
2023-03-04T23:53:40.881Z,5.30
2023-03-04T23:56:14.086Z,5.30
2023-03-04T23:58:42.722Z,5.30
